Terminal Aerodrome Forecast
Issued by NWS

Home | Current Version | Previous Version | Text Only | Print | Product List | Glossary On
Versions: 1 2 3 4 5 6 7 8 9 10 11 12 13 14 15 16 17 18 19 20 21 22 23 24 25
000
FTUS44 KOHX 280132 AAA
TAFCKV
TAF AMD
KCKV 280132Z 2802/2824 19007KT P6SM -RA BKN050 OVC120
     FM281200 20010KT P6SM VCSH BKN050 OVC120=

USA.gov is the U.S. government's official web portal to all federal, state and local government web resources and services.